Canton, Ohio
Current Conditions -  °F | °C
As of 7:51 AM on Sunday 21 Dec 2014 (Local Time) from KCAK Reporting Station
Haze Haze  
Wind Chill: 29°   Ceiling: 2400
Heat Index: 29°   Visibility: 4mi
Dew Point: 23°   Wind: 0mph
Humidity: 78%   Direction: NA
Pressure: 30.3"   Gusts: NA
Location:  40.8°N, 81.37°W
Report Text: KCAK 211251Z 00000KT 4SM HZ OVC024 M02/M05 A3030 RMK AO2 SLP276 T10171050
Loading
Personal Weather Stations






























Interactive Weather Map New forecast layout! Learn more

10-Day Weather Forecast

Advertisements
Track Severe Weather on mobile